Latest Coastal Weather Observations for Tewantin

IDQ60701

Issued at 8:55 am EST Tuesday 21 October 2014 (issued every 10 minutes, with the page automatically refreshed every 10 minutes)

About coastal observations | Map of coastal stations | Coastal observations for QLD | Marine services | Other Formats
Station Details ID: 040908 Name: TEWANTIN RSL PARK Lat: -26.39 Lon: 153.04 Height: 6.4 m
Data from the previous 72 hours. | See also: Recent months at Tewantin
Date/Time
EST
Temp

°C
Wind Pressure Rain
since 9am
mm
Weather Cloud Vis
km
Sea
Height
m
Swell
Dir
 
Speed
knots
Gust
knots
hPa Trend Height
m
Period
s
Dir
21/08:30am 22.1 S 7 9 1026.6 - 0.0 - - - - - - -
21/08:00am 21.5 SE 7 14 1026.5 - 0.0 - - - - - - -
21/07:30am 21.4 ESE 8 11 1026.2 - 0.0 - - - - - - -
21/07:00am 21.9 SE 7 12 1025.8 - 0.0 - - - - - - -
21/06:30am 21.7 SE 6 11 1025.4 - 0.0 - - - - - - -
21/06:00am 21.1 ESE 5 9 1025.3 - 0.0 - - - - - - -
21/05:30am 20.3 ESE 5 7 1025.1 - 0.0 - - - - - - -
21/05:00am 19.9 ESE 6 9 1024.6 - 0.0 - - - - - - -
21/04:30am 19.9 ESE 6 9 1024.5 - 0.0 - - - - - - -
21/04:00am 20.2 ESE 7 12 1024.2 - 0.0 - - - - - - -
21/03:30am 20.1 ESE 7 9 1024.5 - 0.0 - - - - - - -
21/03:00am 20.2 ESE 7 11 1024.6 - 0.0 - - - - - - -
21/02:30am 20.4 ESE 7 12 1024.8 - 0.0 - - - - - - -
21/02:00am 20.5 ESE 8 13 1024.8 - 0.0 - - - - - - -
21/01:30am 20.7 ESE 8 12 1025.1 - 0.0 - - - - - - -
21/01:00am 20.7 ESE 7 9 1025.5 - 0.0 - - - - - - -
21/12:30am 20.7 ESE 8 12 1025.8 - 0.0 - - - - - - -
21/12:00am 20.8 ESE 8 13 1026.1 - 0.0 - - - - - - -
 
Date/Time
EST
Temp

°C
Wind Pressure Rain
since 9am
mm
Weather Cloud Vis
km
Sea
Height
m
Swell
Dir
 
Speed
knots
Gust
knots
hPa Trend Height
m
Period
s
Dir
20/11:30pm 20.8 ESE 8 14 1026.2 - 0.0 - - - - - - -
20/11:00pm 20.8 ESE 8 13 1026.3 - 0.0 - - - - - - -
20/10:30pm 20.8 ESE 9 13 1026.4 - 0.0 - - - - - - -
20/10:00pm 20.8 ESE 7 10 1026.3 - 0.0 - - - - - - -
20/09:30pm 20.6 ESE 5 9 1026.1 - 0.0 - - - - - - -
20/09:00pm 20.1 SE 4 6 1025.8 - 0.0 - - - - - - -
20/08:30pm 20.0 SE 4 6 1025.5 - 0.0 - - - - - - -
20/08:00pm 19.8 E 3 6 1025.0 - 0.0 - - - - - - -
20/07:30pm 20.0 SE 4 5 1024.7 - 0.0 - - - - - - -
20/07:00pm 20.3 SE 4 6 1024.1 - 0.0 - - - - - - -
20/06:30pm 20.2 E 4 5 1023.6 - 0.0 - - - - - - -
20/06:00pm 20.7 E 5 6 1023.2 - 0.0 - - - - - - -
20/05:30pm 21.3 ESE 6 9 1022.9 - 0.0 - - - - - - -
20/05:00pm 21.8 E 6 8 1022.6 - 0.0 - - - - - - -
20/04:30pm 22.1 E 7 9 1022.4 - 0.0 - - - - - - -
20/04:00pm 22.3 E 7 10 1022.3 - 0.0 - - - - - - -
20/03:30pm 22.9 NE 7 11 1022.1 - 0.0 - - - - - - -
20/03:00pm 23.6 NE 7 10 1022.1 - 0.0 - - - - - - -
20/02:30pm 23.6 ENE 7 13 1022.2 - 0.0 - - - - - - -
20/02:00pm 23.7 NE 7 11 1022.4 - 0.0 - - - - - - -
20/01:30pm 23.5 NE 7 12 1022.7 - 0.0 - - - - - - -
20/01:00pm 23.4 NE 6 11 1022.9 - 0.0 - - - - - - -
20/12:30pm 23.0 NE 7 12 1023.3 - 0.0 - - - - - - -
20/12:00pm 23.8 ENE 6 11 1023.8 - 0.0 - - - - - - -
20/11:30am 22.9 ENE 7 10 1024.3 - 0.0 - - - - - - -
20/11:00am 23.3 NE 6 11 1024.6 - 0.0 - - - - - - -
20/10:30am 22.8 SE 6 9 1025.0 - 0.0 - - - - - - -
20/10:00am 22.6 E 5 9 1025.5 - 0.0 - - - - - - -
20/09:30am 22.5 E 5 9 1025.6 - 0.0 - - - - - - -
20/09:00am 23.1 E 6 11 1025.9 - 0.0 - - - - - - -
20/08:30am 21.7 ESE 4 8 1025.8 - 0.0 - - - - - - -
20/08:00am 21.5 SE 4 7 1025.6 - 0.0 - - - - - - -
20/07:30am 20.9 S 4 6 1025.5 - 0.0 - - - - - - -
20/07:00am 19.5 S 5 7 1025.3 - 0.0 - - - - - - -
20/06:30am 18.1 S 4 6 1025.2 - 0.0 - - - - - - -
20/06:00am 16.5 SSW 3 5 1024.9 - 0.0 - - - - - - -
20/05:30am 15.4 SSW 3 4 1024.4 - 0.0 - - - - - - -
20/05:00am 15.1 SSW 1 4 1024.3 - 0.0 - - - - - - -
20/04:30am 15.6 SSW 2 4 1024.2 - 0.0 - - - - - - -
20/04:00am 15.8 SSW 1 5 1024.1 - 0.0 - - - - - - -
20/03:30am 16.0 SSW 1 4 1023.9 - 0.0 - - - - - - -
20/03:00am 16.6 CALM 0 0 1024.0 - 0.0 - - - - - - -
20/02:30am 17.1 SSW 1 4 1024.2 - 0.0 - - - - - - -
20/02:00am 17.6 SSW 3 4 1024.3 - 0.0 - - - - - - -
20/01:30am 18.3 S 2 3 1024.5 - 0.0 - - - - - - -
20/01:00am 19.0 SE 3 5 1024.8 - 0.0 - - - - - - -
20/12:30am 19.6 ESE 4 7 1025.2 - 0.0 - - - - - - -
20/12:00am 19.8 E 4 6 1025.5 - 0.0 - - - - - - -
 
Date/Time
EST
Temp

°C
Wind Pressure Rain
since 9am
mm
Weather Cloud Vis
km
Sea
Height
m
Swell
Dir
 
Speed
knots
Gust
knots
hPa Trend Height
m
Period
s
Dir
19/11:30pm 20.0 E 6 9 1025.8 - 0.0 - - - - - - -
19/11:00pm 20.1 E 6 10 1026.0 - 0.0 - - - - - - -
19/10:30pm 20.3 E 7 11 1026.2 - 0.0 - - - - - - -
19/10:00pm 20.4 E 7 10 1026.3 - 0.0 - - - - - - -
19/09:30pm 20.4 E 7 11 1026.1 - 0.0 - - - - - - -
19/09:00pm 20.6 E 7 11 1026.1 - 0.0 - - - - - - -
19/08:30pm 20.7 E 7 11 1026.0 - 0.0 - - - - - - -
19/08:00pm 20.7 ESE 7 11 1025.8 - 0.0 - - - - - - -
19/07:30pm 20.7 ESE 7 11 1025.5 - 0.0 - - - - - - -
19/07:00pm 20.9 ESE 7 9 1025.4 - 0.0 - - - - - - -
19/06:30pm 20.9 ESE 6 11 1024.9 - 0.0 - - - - - - -
19/06:00pm 20.8 SE 5 8 1024.6 - 0.0 - - - - - - -
19/05:30pm 21.1 ESE 8 15 1024.2 - 0.0 - - - - - - -
19/05:00pm 21.4 ESE 9 14 1023.9 - 0.0 - - - - - - -
19/04:30pm 21.5 ESE 9 13 1023.7 - 0.0 - - - - - - -
19/04:00pm 21.7 SE 9 15 1023.7 - 0.0 - - - - - - -
19/03:30pm 22.0 SE 9 15 1023.6 - 0.0 - - - - - - -
19/03:00pm 22.2 ESE 9 16 1023.7 - 0.0 - - - - - - -
19/02:30pm 22.3 ESE 11 17 1023.9 - 0.0 - - - - - - -
19/02:00pm 22.6 SE 11 19 1024.2 - 0.0 - - - - - - -
19/01:30pm 22.8 SE 9 14 1024.6 - 0.0 - - - - - - -
19/01:00pm 23.0 ESE 10 17 1025.0 - 0.0 - - - - - - -
19/12:30pm 22.7 ESE 11 17 1025.3 - 0.0 - - - - - - -
19/12:00pm 23.0 ESE 9 15 1025.6 - 0.0 - - - - - - -
19/11:30am 23.1 ESE 10 16 1026.0 - 0.0 - - - - - - -
19/11:00am 22.5 ESE 11 18 1026.4 - 0.0 - - - - - - -
19/10:30am 22.6 ESE 10 15 1026.6 - 0.0 - - - - - - -
19/10:00am 22.9 SE 8 16 1026.9 - 0.0 - - - - - - -
19/09:30am 21.1 SSE 5 8 1027.3 - 0.0 - - - - - - -
19/09:00am 20.7 S 7 10 1027.5 - 2.4 - - - - - - -
19/08:30am 19.9 SSE 6 11 1027.4 - 2.4 - - - - - - -
19/08:00am 19.7 S 5 8 1027.3 - 2.4 - - - - - - -
19/07:30am 18.5 SSW 3 5 1027.1 - 2.4 - - - - - - -
19/07:00am 17.5 S 6 10 1027.2 - 2.4 - - - - - - -
19/06:30am 17.2 S 5 8 1026.7 - 2.2 - - - - - - -
19/06:00am 17.2 S 5 7 1026.3 - 2.0 - - - - - - -
19/05:30am 17.2 S 5 7 1025.9 - 2.0 - - - - - - -
19/05:00am 17.4 S 6 8 1025.5 - 2.0 - - - - - - -
19/04:30am 17.7 SSW 5 7 1025.1 - 2.0 - - - - - - -
19/04:00am 17.5 SSW 5 7 1025.0 - 2.0 - - - - - - -
19/03:30am 17.3 S 8 13 1025.0 - 1.6 - - - - - - -
19/03:00am 17.6 SSW 5 7 1024.6 - 1.6 - - - - - - -
19/02:30am 17.8 S 4 7 1024.7 - 1.6 - - - - - - -
19/02:00am 17.8 SSW 4 6 1024.8 - 1.6 - - - - - - -
19/01:30am 17.8 SSW 3 6 1024.8 - 1.4 - - - - - - -
19/01:00am 18.2 S 5 7 1025.2 - 0.2 - - - - - - -
19/12:30am 18.1 S 5 7 1025.6 - 0.2 - - - - - - -
19/12:00am 17.9 SSW 3 7 1025.8 - 0.2 - - - - - - -
 
Date/Time
EST
Temp

°C
Wind Pressure Rain
since 9am
mm
Weather Cloud Vis
km
Sea
Height
m
Swell
Dir
 
Speed
knots
Gust
knots
hPa Trend Height
m
Period
s
Dir
18/11:30pm 18.1 SSW 3 4 1026.1 - 0.2 - - - - - - -
18/11:00pm 17.7 ESE 7 10 1026.4 - 0.2 - - - - - - -
18/10:30pm 19.0 S 7 12 1026.5 - 0.2 - - - - - - -
18/10:00pm 19.1 S 6 9 1026.4 - 0.2 - - - - - - -
18/09:30pm 19.6 SSE 9 14 1026.6 - 0.2 - - - - - - -
18/09:00pm 20.2 SSE 7 13 1026.4 - 0.2 - - - - - - -
18/08:30pm 20.2 S 9 15 1026.2 - 0.2 - - - - - - -
18/08:00pm 20.3 SSE 9 15 1025.8 - 0.2 - - - - - - -
18/07:30pm 20.5 SSE 9 15 1025.5 - 0.2 - - - - - - -
18/07:00pm 21.0 S 7 12 1025.2 - 0.2 - - - - - - -
18/06:30pm 21.1 SE 7 11 1025.0 - 0.2 - - - - - - -
18/06:00pm 21.1 SE 9 16 1024.6 - 0.2 - - - - - - -
18/05:30pm 21.4 SE 7 13 1024.1 - 0.2 - - - - - - -
18/05:00pm 21.5 SE 8 14 1023.7 - 0.2 - - - - - - -
18/04:30pm 21.8 SSE 8 13 1023.4 - 0.2 - - - - - - -
18/04:00pm 22.0 SE 9 17 1023.2 - 0.2 - - - - - - -
18/03:30pm 21.9 SE 10 16 1023.2 - 0.2 - - - - - - -
18/03:00pm 22.5 SE 11 17 1023.1 - 0.2 - - - - - - -
18/02:30pm 22.4 SE 10 16 1023.3 - 0.2 - - - - - - -
18/02:00pm 22.5 SE 11 20 1023.6 - 0.2 - - - - - - -
18/01:30pm 23.0 SSE 10 19 1023.9 - 0.2 - - - - - - -
18/01:00pm 22.5 SSE 11 16 1024.2 - 0.2 - - - - - - -
18/12:30pm 23.3 SSE 10 18 1024.3 - 0.2 - - - - - - -
18/12:00pm 23.1 SSE 10 19 1024.5 - 0.2 - - - - - - -
18/11:30am 22.8 SSE 11 17 1024.9 - 0.2 - - - - - - -
18/11:00am 23.0 SSE 10 17 1025.0 - 0.2 - - - - - - -
18/10:30am 22.6 SSE 9 17 1025.3 - 0.2 - - - - - - -
18/10:00am 22.1 SSE 10 17 1025.5 - 0.2 - - - - - - -
18/09:30am 21.9 SSE 10 16 1025.5 - 0.0 - - - - - - -
18/09:00am 21.7 SSE 8 14 1025.5 - 4.4 - - - - - - -

Other Formats:

Comma delimited format used in spreadsheet applications
http://www.bom.gov.au/fwo/IDQ60701/IDQ60701.94570.axf

JavaScript Object Notation format (JSON) in row-major order
http://www.bom.gov.au/fwo/IDQ60701/IDQ60701.94570.json